Time;durP1;ratioP1;P1;durP2;ratioP2;P2;SDS_P1;SDS_P2;PMS_P1;PMS_P2;Temp;Humidity;BMP_temperature;BMP_pressure;BME280_temperature;BME280_humidity;BME280_pressure;Samples;Min_cycle;Max_cycle;Signal;HPM_P1;HPM_P2
2021/05/29 00:01:22;;;;;;;;;57.00;47.25;;;;;22.41;62.36;100514.63;5113488;28;9441;-74
2021/05/29 00:04:18;;;;;;;;;64.33;51.00;;;;;22.39;62.83;100514.22;5113116;28;9450;-74
2021/05/29 00:07:14;;;;;;;;;65.25;52.25;;;;;22.48;62.72;100506.91;5112961;28;9523;-74
2021/05/29 00:10:10;;;;;;;;;68.25;52.25;;;;;22.54;62.80;100512.06;5112489;28;9694;-74
2021/05/29 00:13:06;;;;;;;;;64.25;51.50;;;;;22.36;63.42;100506.63;5103945;28;9743;-74
2021/05/29 00:16:02;;;;;;;;;62.50;51.00;;;;;22.07;64.66;100497.56;5108757;28;10005;-74
2021/05/29 00:18:57;;;;;;;;;62.75;51.00;;;;;21.82;65.66;100495.72;5113348;28;9913;-75
2021/05/29 00:21:53;;;;;;;;;66.50;53.00;;;;;21.96;65.15;100499.69;5112986;28;9852;-74
2021/05/29 00:24:49;;;;;;;;;69.25;59.50;;;;;21.92;65.33;100492.03;5103589;28;10102;-74
2021/05/29 00:27:44;;;;;;;;;68.50;58.00;;;;;21.93;65.34;100484.41;5092957;28;9991;-74
2021/05/29 00:30:41;;;;;;;;;66.00;53.50;;;;;21.91;64.96;100490.44;5090853;28;10392;-74
2021/05/29 00:33:37;;;;;;;;;72.00;58.75;;;;;21.93;64.87;100490.84;5094176;28;10390;-75
2021/05/29 00:36:34;;;;;;;;;69.00;53.25;;;;;21.94;65.22;100488.84;5114134;28;10676;-75
2021/05/29 00:39:29;;;;;;;;;67.25;53.25;;;;;21.85;65.41;100482.84;5115515;28;10327;-74
2021/05/29 00:42:26;;;;;;;;;71.25;55.50;;;;;21.83;65.48;100483.25;5117221;28;10468;-74
2021/05/29 00:45:22;;;;;;;;;67.00;52.50;;;;;21.78;65.90;100482.91;5115507;28;10314;-74
2021/05/29 00:47:50;;;;;;;;;68.00;53.25;;;;;21.71;66.18;100486.56;5117608;28;10193;-74
2021/05/29 00:50:48;;;;;;;;;62.00;50.50;;;;;21.63;66.79;100480.19;5116915;28;10177;-75
2021/05/29 00:53:46;;;;;;;;;67.50;53.75;;;;;21.59;67.51;100470.16;5116734;28;10286;-75
2021/05/29 00:56:31;;;;;;;;;65.75;52.25;;;;;21.63;67.35;100466.13;5116968;28;10219;-74
2021/05/29 00:59:27;;;;;;;;;36.25;32.00;;;;;21.51;67.50;100465.78;5115377;28;10845;-74
2021/05/29 01:02:23;;;;;;;;;59.75;49.75;;;;;21.51;66.96;100463.78;5116526;28;10136;-74
2021/05/29 01:05:20;;;;;;;;;61.75;50.00;;;;;21.58;66.73;100457.31;5116638;28;10136;-74
2021/05/29 01:08:15;;;;;;;;;70.75;56.50;;;;;21.34;68.04;100457.03;5116867;28;10229;-74
2021/05/29 01:11:11;;;;;;;;;63.25;51.00;;;;;21.07;69.17;100447.50;5117148;27;10411;-75
2021/05/29 01:14:06;;;;;;;;;67.50;53.00;;;;;20.97;68.66;100451.94;5136371;27;10278;-75
2021/05/29 01:17:03;;;;;;;;;62.25;51.25;;;;;20.97;68.83;100449.16;5136452;27;10909;-74
2021/05/29 01:19:59;;;;;;;;;61.25;49.00;;;;;21.06;68.31;100455.13;5136232;27;10172;-74
2021/05/29 01:22:56;;;;;;;;;67.00;51.50;;;;;21.12;68.71;100449.88;5136078;27;10103;-74
2021/05/29 01:25:29;;;;;;;;;65.50;52.75;;;;;21.16;68.60;100447.03;5137332;27;10363;-74
2021/05/29 01:28:16;;;;;;;;;66.25;52.00;;;;;21.25;68.20;100448.22;5137278;27;10338;-74
2021/05/29 01:31:14;;;;;;;;;70.50;57.25;;;;;21.22;68.23;100442.59;5135813;27;10454;-74
2021/05/29 01:34:12;;;;;;;;;66.50;52.00;;;;;21.23;68.20;100447.00;5136117;27;10629;-74
2021/05/29 01:37:09;;;;;;;;;72.75;59.50;;;;;21.31;68.12;100448.59;5135952;27;10725;-74
2021/05/29 01:40:06;;;;;;;;;68.50;56.50;;;;;21.27;68.24;100447.81;5135845;27;10928;-74
2021/05/29 01:43:03;;;;;;;;;73.75;64.00;;;;;21.20;68.88;100443.00;5135690;27;10929;-74
2021/05/29 01:45:59;;;;;;;;;72.50;58.50;;;;;20.97;70.08;100439.91;5135660;27;10800;-74
2021/05/29 01:48:58;;;;;;;;;71.25;58.00;;;;;20.96;70.27;100446.75;5136623;27;10678;-74
2021/05/29 01:51:53;;;;;;;;;69.25;56.00;;;;;21.12;69.32;100440.66;5121671;27;10795;-74
2021/05/29 01:54:23;;;;;;;;;71.00;56.50;;;;;21.16;69.01;100441.41;5136741;27;10762;-74
2021/05/29 01:57:21;;;;;;;;;69.75;53.50;;;;;21.23;69.02;100447.00;5135680;27;10651;-73
2021/05/29 02:00:18;;;;;;;;;56.25;45.75;;;;;21.19;69.39;100460.31;5135499;27;10403;-74
2021/05/29 02:03:14;;;;;;;;;70.75;52.50;;;;;21.28;68.74;100455.84;5135804;27;9779;-74
2021/05/29 02:06:10;;;;;;;;;61.75;48.00;;;;;21.05;70.01;100458.34;5123109;27;10304;-74
2021/05/29 02:09:06;;;;;;;;;53.50;44.50;;;;;21.13;70.14;100457.09;5122654;27;9867;-74
2021/05/29 02:12:02;;;;;;;;;56.75;47.00;;;;;21.23;69.80;100463.88;5135069;27;9692;-74
2021/05/29 02:14:58;;;;;;;;;46.00;39.33;;;;;21.25;70.11;100467.13;5135743;27;9829;-74
2021/05/29 02:17:56;;;;;;;;;49.00;42.00;;;;;21.48;68.93;100464.59;5135735;27;9586;-74
2021/05/29 02:20:54;;;;;;;;;44.67;37.00;;;;;21.43;68.31;100467.84;5134615;27;9425;-74
2021/05/29 02:23:51;;;;;;;;;41.25;35.25;;;;;21.50;68.24;100461.38;5135078;27;9069;-74
2021/05/29 02:26:46;;;;;;;;;36.75;33.75;;;;;21.41;68.90;100480.72;5135051;27;8865;-74
2021/05/29 02:29:42;;;;;;;;;41.75;35.75;;;;;21.55;68.80;100480.66;5135058;27;8869;-74
2021/05/29 02:32:37;;;;;;;;;33.75;32.00;;;;;21.62;67.92;100478.59;5120997;27;8869;-74
2021/05/29 02:35:34;;;;;;;;;33.75;31.00;;;;;21.78;67.35;100478.09;5135071;27;8858;-73
2021/05/29 02:38:33;;;;;;;;;44.00;36.25;;;;;21.90;66.20;100474.75;5134936;27;8865;-74
2021/05/29 02:41:28;;;;;;;;;29.75;26.25;;;;;21.87;65.70;100480.44;5121165;27;8834;-74
2021/05/29 02:44:27;;;;;;;;;39.50;33.75;;;;;21.96;65.72;100474.34;5135374;27;8831;-74
2021/05/29 02:47:22;;;;;;;;;38.50;33.00;;;;;22.08;65.53;100471.03;5134700;27;8938;-74
2021/05/29 02:50:18;;;;;;;;;51.25;40.50;;;;;22.06;65.44;100481.88;5121142;27;8967;-74
2021/05/29 02:52:47;;;;;;;;;53.00;42.75;;;;;22.11;64.97;100471.03;5135502;27;8851;-75
2021/05/29 02:55:45;;;;;;;;;60.33;46.33;;;;;22.22;64.05;100462.47;5120133;27;8850;-74
2021/05/29 02:58:40;;;;;;;;;52.50;42.25;;;;;22.28;62.37;100462.81;5134197;27;9055;-74
2021/05/29 03:01:36;;;;;;;;;51.00;42.25;;;;;22.51;62.78;100462.22;5133674;27;8829;-74
2021/05/29 03:04:31;;;;;;;;;44.50;35.25;;;;;22.36;62.57;100475.63;5134388;27;8833;-74
2021/05/29 03:07:27;;;;;;;;;39.00;35.00;;;;;22.44;62.36;100474.34;5134759;27;8918;-74
2021/05/29 03:10:24;;;;;;;;;29.00;27.75;;;;;22.39;61.80;100477.59;5134067;27;8977;-74
2021/05/29 03:13:20;;;;;;;;;38.50;32.00;;;;;22.60;62.58;100465.31;5120209;27;8858;-74
2021/05/29 03:16:15;;;;;;;;;25.75;25.75;;;;;22.71;61.87;100466.03;5134324;27;8888;-74
2021/05/29 03:19:12;;;;;;;;;25.50;25.50;;;;;22.70;61.51;100472.88;5121548;27;8842;-74
2021/05/29 03:22:08;;;;;;;;;19.75;19.75;;;;;22.78;61.51;100473.63;5134493;27;8823;-74
2021/05/29 03:25:06;;;;;;;;;24.50;24.50;;;;;22.90;61.09;100467.44;5132964;27;8827;-74
2021/05/29 03:28:02;;;;;;;;;20.75;20.75;;;;;23.01;61.12;100466.13;5099882;28;8821;-74
2021/05/29 03:30:58;;;;;;;;;22.50;22.50;;;;;22.98;60.17;100463.31;5128881;27;9580;-74
2021/05/29 03:33:54;;;;;;;;;14.00;13.50;;;;;22.96;60.33;100465.78;5120106;27;8884;-74
2021/05/29 03:36:49;;;;;;;;;17.50;17.50;;;;;22.95;60.27;100472.63;5134240;27;9602;-74
2021/05/29 03:39:45;;;;;;;;;18.00;18.00;;;;;23.09;61.13;100461.19;5133495;27;9564;-74
2021/05/29 03:42:27;;;;;;;;;20.25;20.25;;;;;23.05;60.34;100466.06;5118663;27;8867;-74
2021/05/29 03:45:24;;;;;;;;;25.25;22.75;;;;;23.01;60.02;100465.31;5133643;27;8977;-74
2021/05/29 03:48:19;;;;;;;;;24.50;24.50;;;;;22.90;59.76;100473.09;5132967;27;8828;-74
2021/05/29 03:51:15;;;;;;;;;23.00;23.00;;;;;23.04;59.80;100478.56;5136965;27;8973;-74
2021/05/29 03:54:11;;;;;;;;;24.25;23.75;;;;;22.98;60.04;100483.84;5119572;27;8839;-74
2021/05/29 03:57:06;;;;;;;;;16.50;16.50;;;;;22.79;60.06;100484.47;5118794;27;9052;-74
2021/05/29 04:00:06;;;;;;;;;18.50;15.75;;;;;23.00;60.09;100480.59;5120159;27;8927;-74
2021/05/29 04:03:02;;;;;;;;;17.75;17.75;;;;;22.80;60.47;100473.97;5132729;27;8861;-73
2021/05/29 04:05:58;;;;;;;;;18.00;17.50;;;;;22.94;60.55;100477.47;5122412;27;8827;-73
2021/05/29 04:08:54;;;;;;;;;17.25;17.25;;;;;23.02;60.86;100470.53;5118641;27;8827;-74
2021/05/29 04:11:49;;;;;;;;;13.00;13.00;;;;;22.75;60.61;100466.78;5111303;28;8841;-74
2021/05/29 04:14:45;;;;;;;;;11.25;11.25;;;;;22.97;60.62;100476.63;5112637;28;8813;-74
2021/05/29 04:17:41;;;;;;;;;12.50;12.50;;;;;22.89;60.70;100477.94;5105626;28;8854;-74
2021/05/29 04:20:36;;;;;;;;;13.75;13.75;;;;;22.80;61.02;100469.16;5095661;28;8836;-74
2021/05/29 04:23:05;;;;;;;;;14.25;14.25;;;;;22.80;61.08;100468.34;5113805;28;8835;-74
2021/05/29 04:26:00;;;;;;;;;14.25;14.25;;;;;22.88;60.95;100469.91;5112603;28;8858;-73
2021/05/29 04:28:42;;;;;;;;;17.25;15.75;;;;;22.96;61.34;100475.03;5112946;28;8852;-74
2021/05/29 04:31:10;;;;;;;;;16.50;16.50;;;;;23.10;60.81;100476.09;5113505;28;8916;-74
2021/05/29 04:34:06;;;;;;;;;14.00;13.50;;;;;23.26;60.23;100470.63;5111594;28;8820;-76
2021/05/29 04:37:01;;;;;;;;;13.00;13.00;;;;;23.34;59.70;100477.78;5114164;28;8801;-76
2021/05/29 04:39:57;;;;;;;;;13.25;13.25;;;;;23.30;60.28;100474.19;5111691;28;8852;-76
2021/05/29 04:42:54;;;;;;;;;15.25;15.25;;;;;23.53;60.09;100477.09;5114165;28;8837;-77
2021/05/29 04:45:49;;;;;;;;;15.75;15.75;;;;;23.68;60.46;100474.09;5112939;28;8840;-77
2021/05/29 04:48:45;;;;;;;;;19.00;19.00;;;;;23.89;59.36;100470.97;5112894;28;8828;-77
2021/05/29 04:51:41;;;;;;;;;20.00;19.75;;;;;23.91;58.89;100462.84;5112483;28;8828;-77
2021/05/29 04:54:39;;;;;;;;;17.25;17.25;;;;;23.97;58.74;100458.31;5111315;28;8859;-77
2021/05/29 04:57:36;;;;;;;;;17.25;17.25;;;;;24.09;58.38;100457.72;5112870;28;8821;-77
2021/05/29 05:00:31;;;;;;;;;19.50;17.75;;;;;24.27;58.49;100465.09;5112818;28;8816;-77
2021/05/29 05:03:27;;;;;;;;;16.25;14.75;;;;;24.60;58.81;100461.28;5111065;28;9713;-77
2021/05/29 05:06:22;;;;;;;;;19.75;19.75;;;;;24.57;57.67;100467.81;5111167;28;8847;-75
2021/05/29 05:09:18;;;;;;;;;18.00;17.00;;;;;24.89;57.44;100466.38;5108746;28;8938;-77
2021/05/29 05:12:13;;;;;;;;;19.75;17.50;;;;;24.96;57.79;100458.56;5103378;28;8837;-77
2021/05/29 05:15:10;;;;;;;;;16.60;15.40;;;;;24.90;57.15;100460.28;5111910;28;8939;-77
2021/05/29 05:18:08;;;;;;;;;16.75;16.75;;;;;24.73;56.17;100461.44;5107788;27;8819;-77
2021/05/29 05:21:04;;;;;;;;;15.80;15.80;;;;;24.92;55.69;100451.38;5122069;27;8823;-77
2021/05/29 05:24:02;;;;;;;;;18.50;17.75;;;;;25.06;56.65;100451.09;5124113;27;8827;-78
2021/05/29 05:26:58;;;;;;;;;20.00;20.00;;;;;25.31;55.89;100452.63;5136058;27;8861;-78
2021/05/29 05:29:53;;;;;;;;;18.00;18.00;;;;;25.48;55.48;100455.06;5135609;27;8934;-77
2021/05/29 05:32:49;;;;;;;;;16.80;16.00;;;;;25.68;54.53;100454.97;5126200;27;8931;-77
2021/05/29 05:35:45;;;;;;;;;32.50;30.75;;;;;26.03;55.48;100453.38;5119356;27;8905;-78
2021/05/29 05:38:45;;;;;;;;;22.80;22.80;;;;;26.15;54.37;100460.38;5136025;27;8873;-76
2021/05/29 05:41:42;;;;;;;;;14.80;14.80;;;;;26.34;53.10;100459.44;5115268;28;8837;-75
2021/05/29 05:44:37;;;;;;;;;11.20;11.20;;;;;26.30;51.86;100457.94;5101465;28;9695;-76
2021/05/29 05:47:33;;;;;;;;;23.20;23.20;;;;;26.22;53.18;100457.31;5115360;28;8948;-75
2021/05/29 05:50:30;;;;;;;;;13.40;13.40;;;;;26.32;50.97;100456.28;5115218;28;8848;-76
2021/05/29 05:53:31;;;;;;;;;13.60;13.60;;;;;26.26;51.06;100466.56;5132816;27;8823;-76
2021/05/29 05:56:28;;;;;;;;;10.80;10.80;;;;;26.15;49.66;100462.38;5122000;27;8965;-77
2021/05/29 05:59:23;;;;;;;;;10.80;10.80;;;;;26.29;50.24;100457.16;5135640;27;8915;-77
2021/05/29 06:02:19;;;;;;;;;10.20;10.20;;;;;26.20;49.07;100456.97;5135624;27;8839;-76
2021/05/29 06:05:15;;;;;;;;;12.20;11.40;;;;;26.41;49.85;100452.84;5134799;27;8820;-76
2021/05/29 06:08:11;;;;;;;;;2.20;2.20;;;;;26.42;49.61;100454.44;5130670;27;8823;-75
2021/05/29 06:11:06;;;;;;;;;10.60;10.60;;;;;26.57;49.40;100452.00;5132246;27;8812;-77
2021/05/29 06:20:13;;;;;;;;;6.60;6.60;;;;;27.15;45.62;100449.19;5135355;27;8827;-77
2021/05/29 06:23:10;;;;;;;;;8.00;8.00;;;;;27.28;45.44;100438.63;5121467;27;8823;-76
2021/05/29 06:26:06;;;;;;;;;7.20;7.20;;;;;27.48;46.53;100432.75;5114864;28;9616;-76
2021/05/29 06:29:01;;;;;;;;;7.60;7.60;;;;;27.84;43.99;100440.16;5114643;28;8921;-76
2021/05/29 06:31:57;;;;;;;;;8.80;8.80;;;;;27.85;45.05;100433.22;5125554;27;8883;-76
2021/05/29 06:34:53;;;;;;;;;5.40;5.40;;;;;27.95;44.29;100435.72;5134391;27;8878;-75
2021/05/29 06:37:49;;;;;;;;;10.20;9.20;;;;;27.86;46.07;100427.09;5134681;27;8835;-76
2021/05/29 06:40:45;;;;;;;;;9.80;9.80;;;;;28.02;44.41;100436.72;5123677;27;8918;-76
2021/05/29 06:43:40;;;;;;;;;14.80;8.60;;;;;28.03;44.82;100429.78;5124273;27;8823;-75
2021/05/29 06:46:37;;;;;;;;;9.80;9.80;;;;;28.28;44.72;100432.56;5133863;27;8811;-77
2021/05/29 06:49:35;;;;;;;;;8.20;8.20;;;;;28.71;43.65;100433.94;5134673;27;8827;-77
2021/05/29 06:52:32;;;;;;;;;10.80;10.80;;;;;28.92;43.16;100430.34;5121275;27;8986;-76
2021/05/29 07:01:40;;;;;;;;;7.20;7.20;;;;;29.29;40.22;100424.84;5135013;27;8831;-74
2021/05/29 07:04:35;;;;;;;;;9.60;9.60;;;;;29.03;39.86;100427.06;5134111;27;8811;-75
2021/05/29 07:07:31;;;;;;;;;6.40;6.40;;;;;29.36;41.15;100419.66;5115741;27;9638;-75
2021/05/29 07:10:27;;;;;;;;;8.00;8.00;;;;;29.16;40.06;100410.72;5109018;27;9603;-75
2021/05/29 07:13:24;;;;;;;;;7.60;7.60;;;;;29.56;40.55;100416.47;5134079;27;8851;-75
2021/05/29 07:16:21;;;;;;;;;0.00;0.00;;;;;29.58;41.57;100413.13;5119873;27;8893;-75
2021/05/29 07:19:18;;;;;;;;;7.00;7.00;;;;;30.03;38.80;100403.94;5134176;27;8842;-74
2021/05/29 07:22:13;;;;;;;;;8.20;8.20;;;;;30.14;37.40;100404.31;5119654;27;8891;-75
2021/05/29 07:25:10;;;;;;;;;7.00;7.00;;;;;30.10;38.45;100402.88;5134523;27;8912;-74
2021/05/29 07:28:08;;;;;;;;;7.40;6.40;;;;;29.94;37.41;100394.56;5134371;27;8820;-74
2021/05/29 07:31:04;;;;;;;;;6.00;6.00;;;;;30.12;36.46;100380.38;5135330;27;9028;-74
2021/05/29 07:33:59;;;;;;;;;4.00;4.00;;;;;29.94;35.90;100383.97;5134306;27;9575;-74
2021/05/29 07:36:55;;;;;;;;;7.40;7.00;;;;;30.17;36.51;100385.44;5133997;27;8919;-75
2021/05/29 07:39:50;;;;;;;;;7.60;7.60;;;;;30.16;38.00;100378.97;5133100;27;8843;-73
2021/05/29 07:42:46;;;;;;;;;7.20;7.20;;;;;30.12;38.14;100372.59;5132432;27;8845;-74
2021/05/29 07:45:46;;;;;;;;;6.00;6.00;;;;;30.33;37.00;100370.88;5110484;27;9579;-73
2021/05/29 07:48:41;;;;;;;;;20.60;12.20;;;;;30.35;36.95;100373.25;5113193;28;8905;-74
2021/05/29 07:51:37;;;;;;;;;5.00;5.00;;;;;30.35;36.94;100376.09;5113132;28;8993;-73
2021/05/29 07:54:33;;;;;;;;;6.80;5.80;;;;;30.69;36.32;100366.47;5112988;28;8932;-74
2021/05/29 07:57:28;;;;;;;;;5.00;5.00;;;;;30.96;35.89;100372.09;5113046;28;8826;-74
2021/05/29 08:00:27;;;;;;;;;8.20;6.20;;;;;31.30;35.90;100366.50;5118744;27;8985;-74
2021/05/29 08:03:25;;;;;;;;;4.20;4.20;;;;;31.24;32.26;100372.84;5133454;27;8942;-73
2021/05/29 08:06:21;;;;;;;;;7.20;7.20;;;;;31.43;32.31;100367.03;5133755;27;8827;-74
2021/05/29 08:09:17;;;;;;;;;7.40;7.40;;;;;31.30;32.98;100364.41;5119968;27;8859;-74
2021/05/29 08:12:13;;;;;;;;;5.00;5.00;;;;;31.87;32.31;100367.31;5119694;27;8875;-74
2021/05/29 08:15:10;;;;;;;;;5.80;5.80;;;;;32.03;32.31;100369.75;5133278;27;8831;-74
2021/05/29 08:18:08;;;;;;;;;6.00;6.00;;;;;31.58;32.19;100364.28;5120169;27;8840;-74
2021/05/29 08:21:03;;;;;;;;;4.60;4.60;;;;;31.29;32.00;100376.34;5134299;27;8823;-75
2021/05/29 08:23:59;;;;;;;;;3.40;3.40;;;;;31.79;31.43;100366.09;5133879;27;8835;-75
2021/05/29 08:26:55;;;;;;;;;8.20;8.20;;;;;31.41;32.58;100358.16;5113436;28;9636;-74
2021/05/29 08:29:50;;;;;;;;;7.00;7.00;;;;;30.94;32.63;100366.09;5114460;27;8865;-73
2021/05/29 08:32:46;;;;;;;;;12.80;12.40;;;;;31.20;33.31;100365.69;5112486;28;8964;-75
2021/05/29 08:35:42;;;;;;;;;11.60;11.00;;;;;31.17;32.97;100375.22;5126207;27;8897;-74
2021/05/29 08:38:38;;;;;;;;;9.00;9.00;;;;;31.16;32.90;100374.44;5134043;27;8870;-74
2021/05/29 08:41:35;;;;;;;;;23.40;23.40;;;;;31.25;33.42;100368.72;5132671;27;8827;-75
2021/05/29 08:44:33;;;;;;;;;37.60;33.80;;;;;31.30;32.84;100366.50;5132259;27;8839;-75
2021/05/29 08:47:28;;;;;;;;;8.00;8.00;;;;;31.48;32.46;100370.03;5129986;27;8835;-75
2021/05/29 08:50:26;;;;;;;;;10.60;10.60;;;;;31.35;33.23;100369.47;5099481;28;8825;-74
2021/05/29 08:53:22;;;;;;;;;17.40;17.40;;;;;31.29;32.67;100364.91;5098616;28;8861;-75
2021/05/29 08:56:22;;;;;;;;;11.60;11.60;;;;;31.31;32.02;100366.00;5116222;28;8853;-76
2021/05/29 08:59:25;;;;;;;;;7.00;7.00;;;;;31.65;31.69;100363.91;5102851;27;8853;-75
2021/05/29 09:02:21;;;;;;;;;6.60;6.60;;;;;32.05;30.35;100369.25;5116493;27;8817;-76
2021/05/29 09:05:16;;;;;;;;;5.40;5.40;;;;;31.75;29.94;100362.63;5116541;28;8832;-75
2021/05/29 09:08:13;;;;;;;;;6.80;6.80;;;;;31.95;30.66;100353.44;5116546;28;8934;-75
2021/05/29 09:11:09;;;;;;;;;4.40;4.40;;;;;31.93;30.65;100353.94;5115749;28;8829;-75
2021/05/29 09:14:35;;;;;;;;;8.40;8.40;;;;;32.05;30.58;100347.19;5115948;28;8860;-76
2021/05/29 09:17:30;;;;;;;;;7.60;7.60;;;;;32.00;30.70;100350.72;5114946;28;8951;-76
2021/05/29 09:20:26;;;;;;;;;39.20;34.00;;;;;31.79;31.37;100346.88;5116227;28;8830;-76
2021/05/29 09:23:22;;;;;;;;;3.80;3.80;;;;;31.67;31.50;100335.63;5135665;27;8939;-75
2021/05/29 09:26:22;;;;;;;;;9.60;9.60;;;;;31.92;31.18;100328.69;5122672;27;8854;-75
2021/05/29 09:29:30;;;;;;;;;8.00;8.00;;;;;32.20;30.80;100329.25;5136060;27;8866;-75
2021/05/29 09:32:25;;;;;;;;;23.40;23.40;;;;;32.55;32.33;100327.38;5122292;27;8835;-74
2021/05/29 09:35:30;;;;;;;;;8.00;8.00;;;;;32.99;30.66;100325.84;5122304;27;8852;-75
2021/05/29 09:38:55;;;;;;;;;42.20;36.00;;;;;32.75;30.62;100320.19;5115683;28;9571;-74
2021/05/29 09:41:53;;;;;;;;;11.40;11.40;;;;;32.33;30.00;100315.50;5115323;28;8869;-74
2021/05/29 09:44:49;;;;;;;;;25.20;23.20;;;;;32.76;30.62;100307.47;5123689;27;8842;-75
2021/05/29 09:48:10;;;;;;;;;47.40;40.20;;;;;32.51;31.05;100311.66;5135477;27;8904;-75
2021/05/29 09:51:12;;;;;;;;;9.60;9.20;;;;;32.66;29.89;100301.03;5115921;28;8976;-77
2021/05/29 09:54:12;;;;;;;;;5.00;5.00;;;;;32.96;29.01;100293.22;5101588;28;8851;-77
2021/05/29 09:57:09;;;;;;;;;9.00;9.00;;;;;33.18;28.73;100289.94;5115015;28;8875;-77
2021/05/29 10:00:07;;;;;;;;;7.60;7.60;;;;;33.27;29.17;100294.75;5101697;28;8821;-76
2021/05/29 10:03:04;;;;;;;;;9.20;9.20;;;;;33.37;29.65;100294.19;5101618;28;8889;-76
2021/05/29 10:06:09;;;;;;;;;11.40;11.40;;;;;33.85;28.36;100299.50;5100309;28;8833;-76
2021/05/29 10:09:06;;;;;;;;;11.80;11.80;;;;;33.87;28.00;100296.94;5115016;28;8960;-75
2021/05/29 10:12:04;;;;;;;;;29.60;29.00;;;;;33.62;29.12;100298.44;5101372;28;8883;-76
2021/05/29 10:15:00;;;;;;;;;6.80;6.80;;;;;33.61;27.63;100293.19;5100864;28;8821;-77
2021/05/29 10:18:02;;;;;;;;;8.60;8.60;;;;;33.51;27.60;100286.00;5102444;28;9608;-77
2021/05/29 10:20:58;;;;;;;;;2.60;2.60;;;;;33.71;nan;100283.16;5114936;28;9472;-77
2021/05/29 10:23:55;;;;;;;;;8.20;8.20;;;;;33.81;27.45;100273.13;5101316;28;8845;-77
2021/05/29 10:26:53;;;;;;;;;13.20;8.60;;;;;34.29;26.51;100273.47;5114981;28;8833;-77
2021/05/29 10:29:52;;;;;;;;;5.20;5.20;;;;;34.41;26.40;100256.38;5101377;28;8837;-77
2021/05/29 10:33:11;;;;;;;;;2.80;2.80;;;;;33.52;26.90;100258.94;5100884;28;8895;-76
2021/05/29 10:36:27;;;;;;;;;6.00;6.00;;;;;33.54;27.46;100250.63;5114548;28;8874;-77
2021/05/29 10:39:25;;;;;;;;;7.60;7.60;;;;;33.61;27.84;100244.47;5100692;28;8825;-76
2021/05/29 10:42:31;;;;;;;;;5.80;5.80;;;;;33.33;27.70;100247.69;5101037;28;9608;-76
2021/05/29 10:45:26;;;;;;;;;5.20;5.20;;;;;33.78;27.98;100236.84;5100545;28;8852;-77
2021/05/29 10:48:23;;;;;;;;;6.80;6.20;;;;;34.22;27.08;100236.59;5114176;28;9411;-79
2021/05/29 10:51:19;;;;;;;;;6.80;6.40;;;;;34.68;26.70;100237.84;5114257;28;8841;-80
2021/05/29 10:54:17;;;;;;;;;8.40;8.40;;;;;34.21;27.68;100217.03;5114604;28;8967;-76
2021/05/29 10:57:13;;;;;;;;;3.00;3.00;;;;;34.10;26.81;100219.75;5114034;28;8855;-77
2021/05/29 11:00:31;;;;;;;;;3.60;3.60;;;;;34.66;25.81;100211.69;5101261;28;9616;-77
2021/05/29 11:03:28;;;;;;;;;5.00;5.00;;;;;34.55;25.83;100193.09;5116652;28;8849;-75
2021/05/29 11:06:33;;;;;;;;;4.40;4.40;;;;;34.07;25.95;100190.00;5106198;28;8844;-77
2021/05/29 11:09:35;;;;;;;;;4.00;4.00;;;;;34.64;25.41;100197.84;5089623;28;8860;-78
2021/05/29 11:12:57;;;;;;;;;4.20;4.20;;;;;35.11;25.73;100192.72;5113992;28;8838;-77
2021/05/29 11:15:58;;;;;;;;;4.60;4.00;;;;;35.05;25.00;100204.19;5113880;28;8830;-77
2021/05/29 11:19:12;;;;;;;;;2.40;2.40;;;;;34.43;26.00;100197.19;5099683;28;8838;-78
2021/05/29 11:22:12;;;;;;;;;3.80;3.80;;;;;34.21;27.21;100199.81;5133610;27;8882;-77
2021/05/29 11:25:09;;;;;;;;;3.20;3.20;;;;;34.40;25.63;100194.50;5120313;27;8873;-78
2021/05/29 11:28:05;;;;;;;;;2.40;2.40;;;;;34.71;25.94;100188.78;5116245;27;8930;-78
2021/05/29 11:31:02;;;;;;;;;3.00;3.00;;;;;35.30;24.87;100172.97;5134517;27;8835;-80
2021/05/29 11:33:57;;;;;;;;;3.40;3.40;;;;;35.39;24.96;100176.41;5133884;27;8870;-78
2021/05/29 11:36:55;;;;;;;;;3.40;3.20;;;;;35.80;24.30;100175.25;5132830;27;8831;-77
2021/05/29 11:39:55;;;;;;;;;4.20;4.20;;;;;35.99;25.17;100179.25;5126968;27;9564;-78
2021/05/29 11:42:51;;;;;;;;;8.40;8.40;;;;;35.39;25.01;100172.75;5133312;27;8819;-79
2021/05/29 11:45:55;;;;;;;;;2.00;2.00;;;;;34.90;24.74;100177.72;5119982;27;8835;-79
2021/05/29 11:48:55;;;;;;;;;4.60;4.60;;;;;34.69;25.57;100181.97;5133683;27;8897;-76
2021/05/29 11:52:00;;;;;;;;;5.00;5.00;;;;;34.51;26.11;100183.94;5133020;27;8873;-78
2021/05/29 11:54:56;;;;;;;;;6.40;6.00;;;;;34.38;25.60;100183.53;5132317;27;8828;-77
2021/05/29 11:58:00;;;;;;;;;6.00;6.00;;;;;33.93;26.35;100185.97;5133359;27;8831;-78
2021/05/29 12:00:57;;;;;;;;;6.20;6.20;;;;;34.06;26.76;100185.56;5133639;27;8853;-78
2021/05/29 12:03:56;;;;;;;;;5.00;5.00;;;;;33.79;28.05;100181.06;5133091;27;8849;-76
2021/05/29 12:06:57;;;;;;;;;8.40;8.40;;;;;33.77;26.89;100189.41;5133224;27;8846;-77
2021/05/29 12:09:52;;;;;;;;;8.60;8.60;;;;;33.46;27.12;100193.72;5133929;27;9657;-77
2021/05/29 12:12:52;;;;;;;;;7.20;7.20;;;;;33.40;27.23;100178.53;5111893;28;8895;-77
2021/05/29 12:15:58;;;;;;;;;3.80;3.80;;;;;33.14;28.09;100169.84;5112781;28;8836;-76
2021/05/29 12:19:28;;;;;;;;;6.00;6.00;;;;;33.21;27.81;100170.72;5113508;28;8812;-77
2021/05/29 12:22:31;;;;;;;;;12.00;9.40;;;;;33.30;28.28;100176.28;5113378;28;8879;-76
2021/05/29 12:25:29;;;;;;;;;7.80;7.80;;;;;33.53;27.83;100160.19;5113118;28;8959;-77
2021/05/29 12:28:25;;;;;;;;;4.40;4.40;;;;;33.06;28.01;100153.56;5113599;28;8836;-77
2021/05/29 12:31:22;;;;;;;;;4.60;4.60;;;;;33.08;27.97;100153.84;5110674;28;8864;-77
2021/05/29 12:34:20;;;;;;;;;3.40;3.40;;;;;32.98;27.44;100161.81;5112995;28;8841;-77
2021/05/29 12:37:23;;;;;;;;;4.60;4.00;;;;;33.12;28.08;100154.41;5111529;28;8844;-77
2021/05/29 12:40:19;;;;;;;;;5.00;5.00;;;;;33.03;28.96;100160.28;5111576;28;8836;-77
2021/05/29 12:43:15;;;;;;;;;4.20;4.20;;;;;32.88;29.71;100160.34;5111710;28;8832;-74
2021/05/29 12:46:23;;;;;;;;;4.40;4.40;;;;;32.82;29.60;100162.28;5113096;28;8898;-74
2021/05/29 12:49:20;;;;;;;;;4.00;4.00;;;;;32.60;29.63;100163.56;5092771;28;8838;-79
2021/05/29 12:52:28;;;;;;;;;4.00;4.00;;;;;32.40;30.55;100165.53;5091040;28;8847;-76
2021/05/29 12:55:25;;;;;;;;;6.40;6.40;;;;;32.12;31.13;100173.59;5092742;28;9717;-76
2021/05/29 12:58:24;;;;;;;;;4.00;4.00;;;;;32.16;30.54;100174.22;5106698;28;8971;-74
2021/05/29 13:01:28;;;;;;;;;4.80;4.80;;;;;31.79;31.68;100175.34;5091191;28;8839;-76
2021/05/29 13:07:40;;;;;;;;;4.80;4.60;;;;;31.05;32.29;100214.22;5110354;28;8908;-74
2021/05/29 13:10:40;;;;;;;;;26.00;12.60;;;;;30.04;37.74;100216.56;5112703;28;8824;-74
2021/05/29 13:13:58;;;;;;;;;11.20;10.00;;;;;29.85;38.74;100216.56;5092632;28;8864;-75
2021/05/29 13:16:56;;;;;;;;;14.00;12.60;;;;;29.72;39.57;100218.78;5092642;28;9645;-75
2021/05/29 13:19:59;;;;;;;;;11.00;11.00;;;;;29.66;40.14;100225.59;5092318;28;8862;-73
2021/05/29 13:22:59;;;;;;;;;11.80;10.20;;;;;29.02;41.29;100238.41;5101647;28;8804;-74
2021/05/29 13:26:05;;;;;;;;;13.60;13.60;;;;;28.46;42.79;100279.19;5092325;28;8846;-75
2021/05/29 13:29:02;;;;;;;;;10.80;10.80;;;;;28.19;43.58;100296.81;5092119;28;8944;-75
2021/05/29 13:31:58;;;;;;;;;7.00;7.00;;;;;28.10;43.89;100307.31;5104603;28;9580;-74
2021/05/29 13:34:56;;;;;;;;;9.20;9.20;;;;;28.11;44.41;100308.91;5094266;28;8909;-73
2021/05/29 13:37:51;;;;;;;;;9.20;9.20;;;;;28.00;44.78;100328.41;5094177;28;8862;-73
2021/05/29 13:40:47;;;;;;;;;12.80;12.80;;;;;27.92;45.26;100337.19;5093112;28;8831;-75
2021/05/29 13:43:42;;;;;;;;;9.00;9.00;;;;;27.64;49.52;100338.91;5094358;28;8835;-75
2021/05/29 13:46:38;;;;;;;;;11.80;11.80;;;;;27.15;51.37;100353.47;5095716;28;9588;-75
2021/05/29 13:49:34;;;;;;;;;8.40;8.40;;;;;26.77;52.30;100359.06;5110265;28;8832;-76
2021/05/29 13:52:32;;;;;;;;;8.80;8.80;;;;;26.50;54.96;100379.28;5115805;28;8828;-76
2021/05/29 13:55:28;;;;;;;;;10.00;10.00;;;;;26.01;53.66;100401.22;5116050;28;8856;-75
2021/05/29 13:58:23;;;;;;;;;12.20;12.20;;;;;25.62;57.97;100402.16;5116188;28;8812;-73